createdAt,value
2023-04-09T00:03:02.524Z,100443.38
2023-04-09T00:07:07.002Z,100447.69
2023-04-09T00:11:10.037Z,100448.50
2023-04-09T00:15:20.649Z,100451.19
2023-04-09T00:19:31.226Z,100450.22
2023-04-09T00:23:35.972Z,100449.44
2023-04-09T00:27:39.164Z,100447.84
2023-04-09T00:31:42.329Z,100438.34
2023-04-09T00:35:45.507Z,100441.94
2023-04-09T00:39:50.117Z,100436.88
2023-04-09T00:43:53.203Z,100445.63
2023-04-09T00:47:56.248Z,100438.66
2023-04-09T00:51:59.386Z,100445.63
2023-04-09T00:56:05.381Z,100446.59
2023-04-09T01:00:09.811Z,100444.84
2023-04-09T01:04:13.005Z,100435.25
2023-04-09T01:08:26.176Z,100433.63
2023-04-09T01:12:37.933Z,100437.16
2023-04-09T01:16:45.701Z,100439.66
2023-04-09T01:20:58.045Z,100443.06
2023-04-09T01:25:13.527Z,100437.78
2023-04-09T01:29:22.789Z,100435.16
2023-04-09T01:33:27.410Z,100436.91
2023-04-09T01:37:30.874Z,100430.75
2023-04-09T01:41:35.526Z,100429.00
2023-04-09T01:45:40.840Z,100429.91
2023-04-09T01:49:44.492Z,100429.81
2023-04-09T01:53:47.723Z,100428.84
2023-04-09T01:57:50.821Z,100427.03
2023-04-09T02:01:59.767Z,100426.13
2023-04-09T02:06:09.133Z,100428.66
2023-04-09T02:10:14.330Z,100437.38
2023-04-09T02:14:17.706Z,100419.13
2023-04-09T02:18:27.410Z,100422.66
2023-04-09T02:22:30.597Z,100432.13
2023-04-09T02:26:34.500Z,100434.59
2023-04-09T02:30:37.892Z,100441.56
2023-04-09T02:34:42.709Z,100444.88
2023-04-09T02:38:46.240Z,100444.81
2023-04-09T02:42:49.521Z,100443.06
2023-04-09T02:46:53.262Z,100436.16
2023-04-09T02:50:58.006Z,100439.75
2023-04-09T02:55:01.120Z,100439.84
2023-04-09T02:59:04.193Z,100433.84
2023-04-09T03:03:07.424Z,100437.38
2023-04-09T03:07:12.064Z,100440.91
2023-04-09T03:11:15.859Z,100440.00
2023-04-09T03:15:18.904Z,100434.81
2023-04-09T03:19:21.990Z,100434.88
2023-04-09T03:23:26.393Z,100437.44
2023-04-09T03:27:29.446Z,100440.91
2023-04-09T03:31:34.583Z,100439.84
2023-04-09T03:35:37.689Z,100436.09
2023-04-09T03:39:42.783Z,100437.78
2023-04-09T03:43:46.271Z,100436.97
2023-04-09T03:47:52.230Z,100437.88
2023-04-09T03:51:59.225Z,100442.22
2023-04-09T03:56:12.158Z,100440.44
2023-04-09T04:00:15.734Z,100443.91
2023-04-09T04:04:27.522Z,100456.84
2023-04-09T04:08:33.441Z,100457.63
2023-04-09T04:12:38.244Z,100460.31
2023-04-09T04:16:48.592Z,100456.56
2023-04-09T04:20:55.659Z,100465.16
2023-04-09T04:24:58.981Z,100465.16
2023-04-09T04:29:03.629Z,100469.69
2023-04-09T04:33:33.043Z,100469.69
2023-04-09T04:37:36.620Z,100472.34
2023-04-09T04:41:39.905Z,100480.34
2023-04-09T04:45:55.755Z,100482.19
2023-04-09T04:50:02.354Z,100488.25
2023-04-09T04:54:12.077Z,100490.84
2023-04-09T04:58:18.020Z,100483.94
2023-04-09T05:02:27.663Z,100491.84
2023-04-09T05:06:51.080Z,100489.16
2023-04-09T05:10:59.017Z,100488.91
2023-04-09T05:15:10.120Z,100495.72
2023-04-09T05:19:15.856Z,100495.59
2023-04-09T05:23:20.266Z,100499.78
2023-04-09T05:27:27.687Z,100501.47
2023-04-09T05:31:36.468Z,100503.13
2023-04-09T05:35:45.065Z,100500.50
2023-04-09T05:39:48.231Z,100516.03
2023-04-09T05:43:51.653Z,100516.94
2023-04-09T05:47:56.705Z,100520.44
2023-04-09T05:52:01.433Z,100523.97
2023-04-09T05:56:15.407Z,100518.91
2023-04-09T06:00:26.558Z,100525.34
2023-04-09T06:04:29.696Z,100521.22
2023-04-09T06:08:34.210Z,100526.63
2023-04-09T06:12:37.465Z,100526.56
2023-04-09T06:16:40.492Z,100533.63
2023-04-09T06:20:43.670Z,100526.00
2023-04-09T06:24:48.073Z,100531.50
2023-04-09T06:28:51.152Z,100541.09
2023-04-09T06:32:55.286Z,100534.13
2023-04-09T06:36:58.994Z,100529.06
2023-04-09T06:41:03.688Z,100537.06
2023-04-09T06:45:08.870Z,100541.69
2023-04-09T06:49:12.222Z,100550.56
2023-04-09T06:53:16.239Z,100545.34
2023-04-09T06:57:20.751Z,100541.91
2023-04-09T07:01:23.924Z,100552.53
2023-04-09T07:05:27.092Z,100550.00
2023-04-09T07:09:30.166Z,100556.16
2023-04-09T07:13:35.914Z,100566.75
2023-04-09T07:17:38.958Z,100565.03
2023-04-09T07:21:42.025Z,100571.16
2023-04-09T07:25:45.332Z,100570.44
2023-04-09T07:29:49.776Z,100573.88
2023-04-09T07:33:53.020Z,100583.53
2023-04-09T07:37:57.373Z,100584.31
2023-04-09T07:42:04.386Z,100590.34
2023-04-09T07:46:08.804Z,100587.72
2023-04-09T07:50:12.834Z,100589.63
2023-04-09T07:54:15.893Z,100588.97
2023-04-09T07:58:19.105Z,100591.63
2023-04-09T08:02:24.019Z,100584.66
2023-04-09T08:06:27.616Z,100586.53
2023-04-09T08:10:30.657Z,100592.03
2023-04-09T08:14:33.702Z,100589.63
2023-04-09T08:18:38.368Z,100594.25
2023-04-09T08:22:42.859Z,100589.34
2023-04-09T08:26:46.184Z,100599.25
2023-04-09T08:30:49.568Z,100589.28
2023-04-09T08:34:54.158Z,100603.56
2023-04-09T08:38:57.332Z,100597.69
2023-04-09T08:43:01.431Z,100597.69
2023-04-09T08:47:10.140Z,100603.00
2023-04-09T08:51:16.187Z,100604.84
2023-04-09T08:55:19.267Z,100603.22
2023-04-09T08:59:22.306Z,100605.94
2023-04-09T09:03:25.429Z,100614.97
2023-04-09T09:07:30.753Z,100616.78
2023-04-09T09:11:34.429Z,100614.19
2023-04-09T09:15:37.527Z,100615.97
2023-04-09T09:19:40.586Z,100612.50
2023-04-09T09:23:45.445Z,100614.44
2023-04-09T09:27:48.448Z,100618.09
2023-04-09T09:31:52.460Z,100614.84
2023-04-09T09:35:57.777Z,100613.28
2023-04-09T09:40:02.563Z,100603.09
2023-04-09T09:44:07.260Z,100608.41
2023-04-09T09:48:12.920Z,100605.19
2023-04-09T09:52:17.174Z,100599.28
2023-04-09T09:56:24.777Z,100598.72
2023-04-09T10:00:29.424Z,100597.22
2023-04-09T10:04:35.945Z,100599.25
2023-04-09T10:08:42.180Z,100601.25
2023-04-09T10:12:47.267Z,100597.03
2023-04-09T10:16:51.564Z,100599.75
2023-04-09T10:20:59.672Z,100588.22
2023-04-09T10:25:04.070Z,100591.81
2023-04-09T10:29:11.717Z,100576.97
2023-04-09T10:33:16.667Z,100582.44
2023-04-09T10:37:23.942Z,100577.34
2023-04-09T10:41:30.853Z,100581.06
2023-04-09T10:45:43.147Z,100570.59
2023-04-09T10:49:46.237Z,100579.53
2023-04-09T10:53:54.304Z,100566.47
2023-04-09T10:57:57.384Z,100570.09
2023-04-09T11:02:01.975Z,100567.47
2023-04-09T11:06:09.367Z,100565.69
2023-04-09T11:10:13.538Z,100560.59
2023-04-09T11:14:20.785Z,100566.84
2023-04-09T11:18:26.181Z,100558.09
2023-04-09T11:22:30.358Z,100560.00
2023-04-09T11:26:37.304Z,100552.00
2023-04-09T11:30:41.404Z,100558.94
2023-04-09T11:34:45.773Z,100557.19
2023-04-09T11:38:50.155Z,100555.53
2023-04-09T11:42:55.500Z,100557.38
2023-04-09T11:47:00.023Z,100551.31
2023-04-09T11:51:04.846Z,100559.38
2023-04-09T11:55:09.132Z,100545.47
2023-04-09T11:59:15.558Z,100555.31
2023-04-09T12:03:18.756Z,100545.72
2023-04-09T12:07:23.408Z,100549.19
2023-04-09T12:11:31.831Z,100547.38
2023-04-09T12:15:36.249Z,100550.91
2023-04-09T12:19:39.240Z,100548.38
2023-04-09T12:23:43.646Z,100551.06
2023-04-09T12:27:46.943Z,100553.63
2023-04-09T12:31:50.086Z,100548.28
2023-04-09T12:35:53.148Z,100550.19
2023-04-09T12:39:57.554Z,100547.56
2023-04-09T12:44:01.205Z,100552.81
2023-04-09T12:48:04.233Z,100547.50
2023-04-09T12:52:07.278Z,100543.94
2023-04-09T12:56:11.900Z,100547.53
2023-04-09T13:00:16.043Z,100546.75
2023-04-09T13:04:19.177Z,100542.41
2023-04-09T13:08:22.608Z,100537.13
2023-04-09T13:12:27.076Z,100535.34
2023-04-09T13:16:30.223Z,100531.88
2023-04-09T13:20:33.257Z,100531.91
2023-04-09T13:24:36.756Z,100531.91
2023-04-09T13:28:41.361Z,100528.47
2023-04-09T13:32:44.702Z,100525.84
2023-04-09T13:36:47.755Z,100521.63
2023-04-09T13:40:50.821Z,100526.00
2023-04-09T13:44:56.687Z,100524.28
2023-04-09T13:48:59.861Z,100523.38
2023-04-09T13:53:05.330Z,100523.34
2023-04-09T13:57:08.509Z,100527.91
2023-04-09T14:01:14.805Z,100521.81
2023-04-09T14:05:17.948Z,100516.38
2023-04-09T14:09:21.128Z,100516.38
2023-04-09T14:13:24.203Z,100522.56
2023-04-09T14:17:28.761Z,100522.50
2023-04-09T14:21:32.053Z,100522.50
2023-04-09T14:25:35.067Z,100520.69
2023-04-09T14:29:38.125Z,100524.16
2023-04-09T14:33:42.610Z,100527.75
2023-04-09T14:37:46.907Z,100528.63
2023-04-09T14:41:49.906Z,100523.28
2023-04-09T14:45:54.373Z,100525.03
2023-04-09T14:49:58.782Z,100516.19
2023-04-09T14:54:02.124Z,100523.22
2023-04-09T14:58:07.278Z,100517.09
2023-04-09T15:02:11.214Z,100509.22
2023-04-09T15:06:15.735Z,100505.69
2023-04-09T15:10:18.918Z,100513.59
2023-04-09T15:14:23.785Z,100514.50
2023-04-09T15:18:26.815Z,100514.41
2023-04-09T15:22:31.345Z,100517.84
2023-04-09T15:26:35.642Z,100522.16
2023-04-09T15:30:38.680Z,100515.13
2023-04-09T15:34:41.711Z,100517.75
2023-04-09T15:38:47.088Z,100507.19
2023-04-09T15:42:50.165Z,100516.81
2023-04-09T15:46:53.476Z,100521.28
2023-04-09T15:50:56.503Z,100521.31
2023-04-09T15:55:01.698Z,100519.53
2023-04-09T15:59:05.406Z,100532.63
2023-04-09T16:03:08.462Z,100531.72
2023-04-09T16:07:11.901Z,100529.06
2023-04-09T16:11:16.379Z,100526.38
2023-04-09T16:15:20.037Z,100524.56
2023-04-09T16:19:24.699Z,100522.81
2023-04-09T16:23:30.668Z,100525.41
2023-04-09T16:27:35.290Z,100522.72
2023-04-09T16:31:39.223Z,100526.22
2023-04-09T16:35:42.951Z,100520.91
2023-04-09T16:39:46.158Z,100522.66
2023-04-09T16:43:51.257Z,100523.59
2023-04-09T16:47:54.848Z,100524.50
2023-04-09T16:51:57.991Z,100528.91
2023-04-09T16:56:01.795Z,100532.44
2023-04-09T17:00:07.784Z,100530.63
2023-04-09T17:04:10.999Z,100532.41
2023-04-09T17:08:14.252Z,100531.50
2023-04-09T17:12:17.766Z,100530.63
2023-04-09T17:16:22.303Z,100540.31
2023-04-09T17:20:26.173Z,100542.03
2023-04-09T17:24:29.986Z,100534.09
2023-04-09T17:28:33.396Z,100541.88
2023-04-09T17:32:39.441Z,100546.22
2023-04-09T17:36:42.541Z,100541.81
2023-04-09T17:40:45.974Z,100549.63
2023-04-09T17:44:48.983Z,100548.66
2023-04-09T17:48:54.270Z,100555.63
2023-04-09T17:52:57.725Z,100558.22
2023-04-09T17:57:01.063Z,100566.13
2023-04-09T18:01:08.416Z,100566.00
2023-04-09T18:05:13.107Z,100572.88
2023-04-09T18:09:16.204Z,100569.28
2023-04-09T18:13:19.291Z,100576.22
2023-04-09T18:17:22.886Z,100577.91
2023-04-09T18:21:27.708Z,100579.50
2023-04-09T18:25:31.007Z,100586.44
2023-04-09T18:29:34.303Z,100587.22
2023-04-09T18:33:37.381Z,100591.41
2023-04-09T18:37:41.905Z,100598.31
2023-04-09T18:41:45.039Z,100601.69
2023-04-09T18:45:49.584Z,100611.28
2023-04-09T18:49:52.838Z,100612.16
2023-04-09T18:53:57.408Z,100609.47
2023-04-09T18:58:01.023Z,100617.34
2023-04-09T19:02:05.453Z,100612.00
2023-04-09T19:06:17.720Z,100622.41
2023-04-09T19:10:22.149Z,100613.56
2023-04-09T19:14:25.763Z,100614.44
2023-04-09T19:18:28.862Z,100629.41
2023-04-09T19:22:31.921Z,100621.53
2023-04-09T19:26:36.541Z,100631.09
2023-04-09T19:30:39.572Z,100623.94
2023-04-09T19:34:42.796Z,100632.56
2023-04-09T19:38:45.856Z,100633.34
2023-04-09T19:42:50.270Z,100632.44
2023-04-09T19:46:55.815Z,100635.91
2023-04-09T19:50:59.568Z,100634.09
2023-04-09T19:55:04.408Z,100637.53
2023-04-09T19:59:08.878Z,100638.41
2023-04-09T20:03:12.146Z,100643.69
2023-04-09T20:07:15.619Z,100644.44
2023-04-09T20:11:19.305Z,100635.59
2023-04-09T20:15:23.808Z,100646.00
2023-04-09T20:19:26.957Z,100633.69
2023-04-09T20:23:30.262Z,100636.19
2023-04-09T20:27:33.579Z,100634.41
2023-04-09T20:31:38.054Z,100635.13
2023-04-09T20:35:41.402Z,100635.97
2023-04-09T20:39:45.090Z,100640.22
2023-04-09T20:43:48.158Z,100641.94
2023-04-09T20:47:53.340Z,100636.59
2023-04-09T20:51:56.937Z,100637.47
2023-04-09T20:56:01.861Z,100638.09
2023-04-09T21:00:05.441Z,100638.94
2023-04-09T21:04:09.951Z,100645.09
2023-04-09T21:08:15.407Z,100645.03
2023-04-09T21:12:18.424Z,100652.81
2023-04-09T21:16:21.488Z,100639.59
2023-04-09T21:20:25.934Z,100641.28
2023-04-09T21:24:28.961Z,100642.91
2023-04-09T21:28:32.141Z,100645.44
2023-04-09T21:32:35.320Z,100639.25
2023-04-09T21:36:39.870Z,100639.13
2023-04-09T21:40:42.933Z,100644.38
2023-04-09T21:44:45.918Z,100649.47
2023-04-09T21:48:48.925Z,100657.34
2023-04-09T21:52:53.535Z,100657.38
2023-04-09T21:56:57.000Z,100658.25
2023-04-09T22:01:00.103Z,100657.41
2023-04-09T22:05:03.429Z,100662.59
2023-04-09T22:09:08.000Z,100666.91
2023-04-09T22:13:11.041Z,100659.91
2023-04-09T22:17:14.043Z,100654.63
2023-04-09T22:21:17.333Z,100655.50
2023-04-09T22:25:22.270Z,100661.56
2023-04-09T22:29:25.849Z,100654.53
2023-04-09T22:33:29.227Z,100652.69
2023-04-09T22:37:32.231Z,100661.34
2023-04-09T22:41:36.674Z,100660.34
2023-04-09T22:45:39.740Z,100667.09
2023-04-09T22:49:42.803Z,100668.91
2023-04-09T22:53:47.888Z,100663.56
2023-04-09T22:57:52.334Z,100670.41
2023-04-09T23:01:55.488Z,100663.25
2023-04-09T23:05:58.571Z,100667.53
2023-04-09T23:10:01.580Z,100663.88
2023-04-09T23:14:05.982Z,100664.56
2023-04-09T23:18:09.025Z,100662.81
2023-04-09T23:22:12.057Z,100662.78
2023-04-09T23:26:15.115Z,100657.44
2023-04-09T23:30:21.651Z,100660.97
2023-04-09T23:34:24.757Z,100657.44
2023-04-09T23:38:27.819Z,100665.34
2023-04-09T23:42:33.024Z,100659.22
2023-04-09T23:46:37.989Z,100660.06
2023-04-09T23:50:41.873Z,100669.66
2023-04-09T23:54:51.137Z,100669.66
2023-04-09T23:58:54.150Z,100666.13
